Detall de PIREP

Printer-friendly versionPDF version

[2016/05/08 08:11:00]
Flight IATA:CT3230
Pilot Number:012
Company ICAO:CAT
Aircraft Type:DC85/A
PAX:132
Aircraft Registration:PAX
Departing Airport: LEPA
Destination Airport: ELLX
Alternate Airport:EBBR
Online: VATSIM
Route:MEROS UN853 IXILU UL47 GIVOR UN853 SORAL V36 AKELU
Flight Level:F340
No Slew and time accel
No pause
Crash detect
Detect pilot in Cockpit between each 30 and 45 minutes
08:11 Zero fuel Weight: 171223 Lbs, Fuel Weight: 41593 Lbs
08:11 VATSIM:LEPA 080800Z 20001KT 9999 FEW008 BKN025 17/14 Q1007 NOSIG
08:11 VATSIM:ELLX 080750Z 06007KT 020V090 CAVOK 18/07 Q1011 NOSIG
08:15 Parking Brakes off
08:21 Take-off
08:21 Take off Weight: 211759 Lbs
08:21 Wind: 359º @ 001 Knots Heading: 239º
08:21 POS N39º 33´ 15´´ E002º 43´ 33´´
08:21 Gear Up: 164 Knots
08:21 Flaps:2 at 164 Knots
08:22 Flaps:1 at 195 Knots
08:22 Flaps:0 at 206 Knots
08:36 Wind:245º@041 Knots Heading: 054º Ground Speed: 497 Knots Altitude 32844 ft
08:37 TOC
08:37 Fuel Weight: 35216 Lb
08:51 Wind:233º@040 Knots Heading: 032º Ground Speed: 520 Knots Altitude 33845 ft
09:06 Wind:278º@038 Knots Heading: 001º Ground Speed: 482 Knots Altitude 33937 ft
09:21 Wind:290º@032 Knots Heading: 353º Ground Speed: 471 Knots Altitude 33963 ft
09:36 Wind:284º@027 Knots Heading: 355º Ground Speed: 479 Knots Altitude 33914 ft
09:42 TOD
09:42 Fuel Weight: 20608 Lb
09:51 Wind:122º@010 Knots Heading: 005º Ground Speed: 303 Knots Altitude 15574 ft
09:56 Flaps:1 at 195 Knots
09:56 Flaps:2 at 194 Knots
09:59 Flaps:3 at 190 Knots
10:06 Wind:097º@006 Knots Heading: 140º Ground Speed: 192 Knots Altitude 3989 ft
10:08 Flaps:4 at 165 Knots
10:08 Gear Down: 155 Knots
10:09 Flaps:5 at 145 Knots
10:10 TouchDown:Rate -169 ft/min Speed: 124 Knots
10:10 VATSIM:ELLX 080950Z 10009KT 050V170 CAVOK 22/07 Q1011 NOSIG
10:10 Land
10:10 Wind:096º@006 Knots
10:10 Heading: 238º
10:10 Flight Duration: 01:49
10:10 Landing Weight: 188883 Lbs
10:10 POS N49º 37´ 46´´ E006º 13´ 08´´
10:14 Parking brakes on
10:14 Block to Block Duration: 01:59
10:14 Final Fuel: 17283 Lbls
10:14 Spent Fuel: 24310 Lbls
10:14 Flight Length: 771 NM
10:14 TOD Land Length: 132 NM

Exportar CSV

Powered by Drupal - Modified by Danger4k